sensor_id;sensor_type;location;lat;lon;timestamp;pressure;altitude;pressure_sealevel;temperature;humidity
61786;BME280;47692;53.714;11.372;2023-03-14T00:00:11;98312.69;;;9.65;100.00
61786;BME280;47692;53.714;11.372;2023-03-14T00:02:37;98313.34;;;9.69;100.00
61786;BME280;47692;53.714;11.372;2023-03-14T00:05:03;98308.38;;;9.64;100.00
61786;BME280;47692;53.714;11.372;2023-03-14T00:07:33;98303.28;;;9.63;100.00
61786;BME280;47692;53.714;11.372;2023-03-14T00:10:00;98312.50;;;9.68;100.00
61786;BME280;47692;53.714;11.372;2023-03-14T00:12:26;98304.09;;;9.63;100.00
61786;BME280;47692;53.714;11.372;2023-03-14T00:14:52;98288.47;;;9.63;100.00
61786;BME280;47692;53.714;11.372;2023-03-14T00:17:17;98285.13;;;9.61;100.00
61786;BME280;47692;53.714;11.372;2023-03-14T00:19:42;98300.56;;;9.64;100.00
61786;BME280;47692;53.714;11.372;2023-03-14T00:22:08;98310.84;;;9.67;99.78
61786;BME280;47692;53.714;11.372;2023-03-14T00:24:33;98322.59;;;9.75;99.25
61786;BME280;47692;53.714;11.372;2023-03-14T00:26:58;98327.78;;;9.75;99.43
61786;BME280;47692;53.714;11.372;2023-03-14T00:29:23;98340.22;;;9.69;99.28
61786;BME280;47692;53.714;11.372;2023-03-14T00:31:49;98331.84;;;9.64;99.82
61786;BME280;47692;53.714;11.372;2023-03-14T00:34:14;98340.41;;;9.66;99.94
61786;BME280;47692;53.714;11.372;2023-03-14T00:36:40;98328.16;;;9.68;99.81
61786;BME280;47692;53.714;11.372;2023-03-14T00:39:05;98325.59;;;9.67;100.00
61786;BME280;47692;53.714;11.372;2023-03-14T00:41:30;98324.44;;;9.73;99.98
61786;BME280;47692;53.714;11.372;2023-03-14T00:43:58;98331.47;;;9.70;100.00
61786;BME280;47692;53.714;11.372;2023-03-14T00:46:24;98334.69;;;9.60;100.00
61786;BME280;47692;53.714;11.372;2023-03-14T00:48:49;98343.81;;;9.52;100.00
61786;BME280;47692;53.714;11.372;2023-03-14T00:51:15;98344.97;;;9.47;100.00
61786;BME280;47692;53.714;11.372;2023-03-14T00:53:40;98334.75;;;9.44;100.00
61786;BME280;47692;53.714;11.372;2023-03-14T00:56:09;98330.47;;;9.43;100.00
61786;BME280;47692;53.714;11.372;2023-03-14T00:58:35;98314.59;;;9.31;100.00
61786;BME280;47692;53.714;11.372;2023-03-14T01:01:13;98301.28;;;9.36;100.00
61786;BME280;47692;53.714;11.372;2023-03-14T01:03:38;98282.06;;;9.38;100.00
61786;BME280;47692;53.714;11.372;2023-03-14T01:08:37;98270.38;;;9.46;100.00
61786;BME280;47692;53.714;11.372;2023-03-14T01:11:10;98271.88;;;9.50;100.00
61786;BME280;47692;53.714;11.372;2023-03-14T01:13:37;98285.84;;;9.49;100.00
61786;BME280;47692;53.714;11.372;2023-03-14T01:16:04;98287.50;;;9.50;100.00
61786;BME280;47692;53.714;11.372;2023-03-14T01:18:32;98294.38;;;9.51;100.00
61786;BME280;47692;53.714;11.372;2023-03-14T01:20:57;98288.53;;;9.47;100.00
61786;BME280;47692;53.714;11.372;2023-03-14T01:23:23;98289.34;;;9.48;100.00
61786;BME280;47692;53.714;11.372;2023-03-14T01:25:48;98291.19;;;9.46;100.00
61786;BME280;47692;53.714;11.372;2023-03-14T01:28:13;98302.94;;;9.53;100.00
61786;BME280;47692;53.714;11.372;2023-03-14T01:30:39;98300.44;;;9.51;100.00
61786;BME280;47692;53.714;11.372;2023-03-14T01:33:04;98317.66;;;9.54;100.00
61786;BME280;47692;53.714;11.372;2023-03-14T01:35:29;98308.94;;;9.55;100.00
61786;BME280;47692;53.714;11.372;2023-03-14T01:37:54;98313.03;;;9.59;100.00
61786;BME280;47692;53.714;11.372;2023-03-14T01:40:20;98316.56;;;9.58;100.00
61786;BME280;47692;53.714;11.372;2023-03-14T01:42:56;98318.22;;;9.59;100.00
61786;BME280;47692;53.714;11.372;2023-03-14T01:48:45;98308.16;;;9.53;100.00
61786;BME280;47692;53.714;11.372;2023-03-14T01:51:20;98304.63;;;9.54;100.00
61786;BME280;47692;53.714;11.372;2023-03-14T01:53:48;98295.56;;;9.61;100.00
61786;BME280;47692;53.714;11.372;2023-03-14T01:56:17;98289.16;;;9.51;100.00
61786;BME280;47692;53.714;11.372;2023-03-14T01:58:45;98299.34;;;9.56;100.00
61786;BME280;47692;53.714;11.372;2023-03-14T02:01:14;98290.69;;;9.55;100.00
61786;BME280;47692;53.714;11.372;2023-03-14T02:03:48;98271.25;;;9.61;100.00
61786;BME280;47692;53.714;11.372;2023-03-14T02:06:17;98261.13;;;9.56;100.00
61786;BME280;47692;53.714;11.372;2023-03-14T02:08:44;98256.41;;;9.47;100.00
61786;BME280;47692;53.714;11.372;2023-03-14T02:11:13;98257.75;;;9.54;100.00
61786;BME280;47692;53.714;11.372;2023-03-14T02:13:39;98253.72;;;9.48;100.00
61786;BME280;47692;53.714;11.372;2023-03-14T02:16:05;98252.69;;;9.51;100.00
61786;BME280;47692;53.714;11.372;2023-03-14T02:18:30;98245.84;;;9.50;100.00
61786;BME280;47692;53.714;11.372;2023-03-14T02:26:31;98235.44;;;9.50;100.00
61786;BME280;47692;53.714;11.372;2023-03-14T02:28:59;98245.84;;;9.50;100.00
61786;BME280;47692;53.714;11.372;2023-03-14T02:31:24;98238.94;;;9.49;100.00
61786;BME280;47692;53.714;11.372;2023-03-14T02:33:50;98228.44;;;9.50;100.00
61786;BME280;47692;53.714;11.372;2023-03-14T02:36:18;98213.06;;;9.46;100.00
61786;BME280;47692;53.714;11.372;2023-03-14T02:39:11;98190.38;;;9.48;100.00
61786;BME280;47692;53.714;11.372;2023-03-14T02:41:39;98189.63;;;9.46;100.00
61786;BME280;47692;53.714;11.372;2023-03-14T02:44:04;98190.75;;;9.42;100.00
61786;BME280;47692;53.714;11.372;2023-03-14T02:46:30;98193.34;;;9.42;100.00
61786;BME280;47692;53.714;11.372;2023-03-14T02:48:58;98190.91;;;9.38;100.00
61786;BME280;47692;53.714;11.372;2023-03-14T02:51:26;98190.91;;;9.38;100.00
61786;BME280;47692;53.714;11.372;2023-03-14T02:53:52;98194.13;;;9.44;100.00
61786;BME280;47692;53.714;11.372;2023-03-14T02:56:17;98199.69;;;9.37;100.00
61786;BME280;47692;53.714;11.372;2023-03-14T02:58:43;98202.66;;;9.46;100.00
61786;BME280;47692;53.714;11.372;2023-03-14T03:01:08;98213.94;;;9.46;100.00
61786;BME280;47692;53.714;11.372;2023-03-14T03:03:34;98211.03;;;9.51;100.00
61786;BME280;47692;53.714;11.372;2023-03-14T03:05:59;98214.59;;;9.50;100.00
61786;BME280;47692;53.714;11.372;2023-03-14T03:08:25;98221.66;;;9.48;100.00
61786;BME280;47692;53.714;11.372;2023-03-14T03:10:52;98227.78;;;9.47;100.00
61786;BME280;47692;53.714;11.372;2023-03-14T03:13:20;98230.72;;;9.41;100.00
61786;BME280;47692;53.714;11.372;2023-03-14T03:15:45;98230.56;;;9.44;100.00
61786;BME280;47692;53.714;11.372;2023-03-14T03:18:11;98224.38;;;9.30;100.00
61786;BME280;47692;53.714;11.372;2023-03-14T03:20:36;98212.44;;;9.26;100.00
61786;BME280;47692;53.714;11.372;2023-03-14T03:23:02;98207.25;;;9.26;100.00
61786;BME280;47692;53.714;11.372;2023-03-14T03:25:28;98207.53;;;9.21;100.00
61786;BME280;47692;53.714;11.372;2023-03-14T03:27:54;98210.47;;;9.15;100.00
61786;BME280;47692;53.714;11.372;2023-03-14T03:30:20;98211.00;;;9.06;100.00
61786;BME280;47692;53.714;11.372;2023-03-14T03:32:45;98204.28;;;9.02;100.00
61786;BME280;47692;53.714;11.372;2023-03-14T03:35:11;98203.38;;;9.03;100.00
61786;BME280;47692;53.714;11.372;2023-03-14T03:37:37;98201.28;;;8.94;100.00
61786;BME280;47692;53.714;11.372;2023-03-14T03:40:03;98196.41;;;8.87;100.00
61786;BME280;47692;53.714;11.372;2023-03-14T03:42:33;98183.34;;;8.89;100.00
61786;BME280;47692;53.714;11.372;2023-03-14T03:44:59;98184.34;;;8.86;100.00
61786;BME280;47692;53.714;11.372;2023-03-14T03:47:25;98183.50;;;8.86;100.00
61786;BME280;47692;53.714;11.372;2023-03-14T03:49:50;98166.19;;;8.85;100.00
61786;BME280;47692;53.714;11.372;2023-03-14T03:52:15;98169.56;;;8.87;100.00
61786;BME280;47692;53.714;11.372;2023-03-14T03:54:41;98148.84;;;8.85;100.00
61786;BME280;47692;53.714;11.372;2023-03-14T03:57:06;98141.09;;;8.84;100.00
61786;BME280;47692;53.714;11.372;2023-03-14T03:59:31;98138.69;;;8.81;100.00
61786;BME280;47692;53.714;11.372;2023-03-14T04:01:57;98128.09;;;8.84;100.00
61786;BME280;47692;53.714;11.372;2023-03-14T04:04:22;98125.22;;;8.88;100.00
61786;BME280;47692;53.714;11.372;2023-03-14T04:06:47;98123.19;;;8.94;100.00
61786;BME280;47692;53.714;11.372;2023-03-14T04:09:14;98122.03;;;8.99;100.00
61786;BME280;47692;53.714;11.372;2023-03-14T04:11:39;98111.78;;;8.96;100.00
61786;BME280;47692;53.714;11.372;2023-03-14T04:14:06;98110.75;;;8.99;100.00
61786;BME280;47692;53.714;11.372;2023-03-14T04:16:31;98118.66;;;8.97;100.00
61786;BME280;47692;53.714;11.372;2023-03-14T04:18:57;98121.84;;;9.02;100.00
61786;BME280;47692;53.714;11.372;2023-03-14T04:21:22;98114.97;;;9.01;100.00
61786;BME280;47692;53.714;11.372;2023-03-14T04:23:48;98123.41;;;9.05;100.00
61786;BME280;47692;53.714;11.372;2023-03-14T04:26:14;98123.16;;;9.10;100.00
61786;BME280;47692;53.714;11.372;2023-03-14T04:28:39;98125.75;;;9.10;100.00
61786;BME280;47692;53.714;11.372;2023-03-14T04:31:12;98121.47;;;9.09;100.00
61786;BME280;47692;53.714;11.372;2023-03-14T04:33:38;98114.25;;;9.14;100.00
61786;BME280;47692;53.714;11.372;2023-03-14T04:36:05;98114.44;;;9.11;100.00
61786;BME280;47692;53.714;11.372;2023-03-14T04:38:31;98110.03;;;9.11;100.00
61786;BME280;47692;53.714;11.372;2023-03-14T04:40:56;98101.16;;;9.15;100.00
61786;BME280;47692;53.714;11.372;2023-03-14T04:43:22;98086.19;;;9.19;100.00
61786;BME280;47692;53.714;11.372;2023-03-14T04:45:47;98089.16;;;9.13;100.00
61786;BME280;47692;53.714;11.372;2023-03-14T04:48:12;98091.00;;;9.11;100.00
61786;BME280;47692;53.714;11.372;2023-03-14T04:50:38;98090.44;;;9.05;100.00
61786;BME280;47692;53.714;11.372;2023-03-14T04:53:04;98086.25;;;9.03;100.00
61786;BME280;47692;53.714;11.372;2023-03-14T04:55:29;98096.66;;;9.03;100.00
61786;BME280;47692;53.714;11.372;2023-03-14T04:57:54;98086.25;;;9.03;100.00
61786;BME280;47692;53.714;11.372;2023-03-14T05:00:19;98080.53;;;8.96;100.00
61786;BME280;47692;53.714;11.372;2023-03-14T05:02:45;98094.50;;;8.95;100.00
61786;BME280;47692;53.714;11.372;2023-03-14T05:05:10;98084.25;;;8.92;100.00
61786;BME280;47692;53.714;11.372;2023-03-14T05:07:36;98070.13;;;8.96;100.00
61786;BME280;47692;53.714;11.372;2023-03-14T05:10:01;98074.06;;;8.89;100.00
61786;BME280;47692;53.714;11.372;2023-03-14T05:12:27;98081.09;;;8.87;100.00
61786;BME280;47692;53.714;11.372;2023-03-14T05:14:52;98079.78;;;8.80;100.00
61786;BME280;47692;53.714;11.372;2023-03-14T05:17:17;98075.13;;;8.85;100.00
61786;BME280;47692;53.714;11.372;2023-03-14T05:19:43;98075.13;;;8.85;100.00
61786;BME280;47692;53.714;11.372;2023-03-14T05:22:10;98072.53;;;8.85;100.00
61786;BME280;47692;53.714;11.372;2023-03-14T05:24:35;98076.16;;;8.82;100.00
61786;BME280;47692;53.714;11.372;2023-03-14T05:27:00;98077.00;;;8.83;100.00
61786;BME280;47692;53.714;11.372;2023-03-14T05:29:26;98081.09;;;8.87;100.00
61786;BME280;47692;53.714;11.372;2023-03-14T05:31:51;98079.41;;;8.86;100.00
61786;BME280;47692;53.714;11.372;2023-03-14T05:34:16;98076.06;;;8.84;100.00
61786;BME280;47692;53.714;11.372;2023-03-14T05:36:42;98076.25;;;8.81;100.00
61786;BME280;47692;53.714;11.372;2023-03-14T05:39:07;98067.44;;;8.83;100.00
61786;BME280;47692;53.714;11.372;2023-03-14T05:41:32;98076.06;;;8.84;100.00
61786;BME280;47692;53.714;11.372;2023-03-14T05:43:57;98071.88;;;8.81;100.00
61786;BME280;47692;53.714;11.372;2023-03-14T05:46:23;98061.41;;;8.83;100.00
61786;BME280;47692;53.714;11.372;2023-03-14T05:48:48;98067.31;;;8.85;100.00
61786;BME280;47692;53.714;11.372;2023-03-14T05:51:13;98061.31;;;8.84;100.00
61786;BME280;47692;53.714;11.372;2023-03-14T05:53:39;98061.19;;;8.86;100.00
61786;BME280;47692;53.714;11.372;2023-03-14T05:56:04;98056.91;;;8.85;100.00
61786;BME280;47692;53.714;11.372;2023-03-14T05:58:30;98058.25;;;8.92;100.00
61786;BME280;47692;53.714;11.372;2023-03-14T06:00:55;98060.94;;;8.91;100.00
61786;BME280;47692;53.714;11.372;2023-03-14T06:03:21;98066.97;;;8.91;100.00
61786;BME280;47692;53.714;11.372;2023-03-14T06:05:46;98061.97;;;8.88;100.00
61786;BME280;47692;53.714;11.372;2023-03-14T06:08:14;98056.34;;;8.80;100.00
61786;BME280;47692;53.714;11.372;2023-03-14T06:10:39;98053.75;;;8.80;100.00
61786;BME280;47692;53.714;11.372;2023-03-14T06:13:04;98054.69;;;8.79;100.00
61786;BME280;47692;53.714;11.372;2023-03-14T06:15:30;98045.94;;;8.80;100.00
61786;BME280;47692;53.714;11.372;2023-03-14T06:17:55;98048.25;;;8.70;100.00
61786;BME280;47692;53.714;11.372;2023-03-14T06:20:21;98055.03;;;8.72;100.00
61786;BME280;47692;53.714;11.372;2023-03-14T06:22:46;98049.56;;;8.77;100.00
61786;BME280;47692;53.714;11.372;2023-03-14T06:25:11;98054.88;;;8.76;100.00
61786;BME280;47692;53.714;11.372;2023-03-14T06:27:37;98056.56;;;8.77;100.00
61786;BME280;47692;53.714;11.372;2023-03-14T06:30:03;98054.09;;;8.73;100.00
61786;BME280;47692;53.714;11.372;2023-03-14T06:32:29;98056.81;;;8.72;100.00
61786;BME280;47692;53.714;11.372;2023-03-14T06:34:54;98062.84;;;8.72;100.00
61786;BME280;47692;53.714;11.372;2023-03-14T06:37:19;98059.31;;;8.73;100.00
61786;BME280;47692;53.714;11.372;2023-03-14T06:39:45;98062.84;;;8.72;100.00
61786;BME280;47692;53.714;11.372;2023-03-14T06:42:10;98066.38;;;8.71;100.00
61786;BME280;47692;53.714;11.372;2023-03-14T06:44:35;98071.31;;;8.76;100.00
61786;BME280;47692;53.714;11.372;2023-03-14T06:47:01;98070.56;;;8.74;100.00
61786;BME280;47692;53.714;11.372;2023-03-14T06:49:26;98062.84;;;8.72;100.00
61786;BME280;47692;53.714;11.372;2023-03-14T06:51:52;98071.41;;;8.75;100.00
61786;BME280;47692;53.714;11.372;2023-03-14T06:54:17;98066.19;;;8.75;100.00
61786;BME280;47692;53.714;11.372;2023-03-14T06:56:42;98072.06;;;8.78;100.00
61786;BME280;47692;53.714;11.372;2023-03-14T06:59:08;98067.69;;;8.79;100.00
61786;BME280;47692;53.714;11.372;2023-03-14T07:01:33;98079.41;;;8.86;100.00
61786;BME280;47692;53.714;11.372;2023-03-14T07:04:00;98075.06;;;8.86;100.00
61786;BME280;47692;53.714;11.372;2023-03-14T07:06:26;98077.75;;;8.85;100.00
61786;BME280;47692;53.714;11.372;2023-03-14T07:08:54;98093.84;;;8.92;100.00
61786;BME280;47692;53.714;11.372;2023-03-14T07:11:19;98098.75;;;8.96;100.00
61786;BME280;47692;53.714;11.372;2023-03-14T07:13:45;98099.72;;;8.95;100.00
61786;BME280;47692;53.714;11.372;2023-03-14T07:16:10;98097.84;;;8.97;100.00
61786;BME280;47692;53.714;11.372;2023-03-14T07:18:36;98102.22;;;8.97;100.00
61786;BME280;47692;53.714;11.372;2023-03-14T07:21:02;98104.16;;;8.93;100.00
61786;BME280;47692;53.714;11.372;2023-03-14T07:23:28;98111.78;;;8.96;100.00
61786;BME280;47692;53.714;11.372;2023-03-14T07:25:54;98114.56;;;8.93;100.00
61786;BME280;47692;53.714;11.372;2023-03-14T07:28:20;98100.63;;;8.94;100.00
61786;BME280;47692;53.714;11.372;2023-03-14T07:30:46;98110.28;;;8.92;100.00
61786;BME280;47692;53.714;11.372;2023-03-14T07:33:12;98120.88;;;8.89;100.00
61786;BME280;47692;53.714;11.372;2023-03-14T07:35:37;98121.56;;;8.93;100.00
61786;BME280;47692;53.714;11.372;2023-03-14T07:38:02;98134.72;;;8.89;100.00
61786;BME280;47692;53.714;11.372;2023-03-14T07:40:28;98120.13;;;8.87;100.00
61786;BME280;47692;53.714;11.372;2023-03-14T07:42:53;98119.31;;;8.86;100.00
61786;BME280;47692;53.714;11.372;2023-03-14T07:45:20;98132.22;;;8.88;100.00
61786;BME280;47692;53.714;11.372;2023-03-14T07:47:45;98132.03;;;8.91;100.00
61786;BME280;47692;53.714;11.372;2023-03-14T07:50:10;98127.59;;;8.93;100.00
61786;BME280;47692;53.714;11.372;2023-03-14T07:52:36;98131.66;;;8.97;100.00
61786;BME280;47692;53.714;11.372;2023-03-14T07:55:01;98131.88;;;9.09;100.00
61786;BME280;47692;53.714;11.372;2023-03-14T07:57:26;98124.31;;;9.20;100.00
61786;BME280;47692;53.714;11.372;2023-03-14T07:59:52;98127.13;;;9.31;100.00
61786;BME280;47692;53.714;11.372;2023-03-14T08:02:17;98139.38;;;9.29;98.80
61786;BME280;47692;53.714;11.372;2023-03-14T08:04:45;98137.53;;;9.31;98.89
61786;BME280;47692;53.714;11.372;2023-03-14T08:07:10;98140.03;;;9.33;98.40
61786;BME280;47692;53.714;11.372;2023-03-14T08:09:36;98146.94;;;9.34;97.67
61786;BME280;47692;53.714;11.372;2023-03-14T08:12:01;98137.91;;;9.25;96.96
61786;BME280;47692;53.714;11.372;2023-03-14T08:14:26;98136.38;;;9.21;96.98
61786;BME280;47692;53.714;11.372;2023-03-14T08:16:54;98144.47;;;9.16;96.78
61786;BME280;47692;53.714;11.372;2023-03-14T08:19:19;98139.75;;;9.23;96.57
61786;BME280;47692;53.714;11.372;2023-03-14T08:21:44;98131.19;;;9.21;96.26
61786;BME280;47692;53.714;11.372;2023-03-14T08:24:10;98137.91;;;9.25;96.97
61786;BME280;47692;53.714;11.372;2023-03-14T08:26:35;98125.28;;;9.48;96.25
61786;BME280;47692;53.714;11.372;2023-03-14T08:29:00;98131.03;;;9.53;94.12
61786;BME280;47692;53.714;11.372;2023-03-14T08:31:26;98121.19;;;9.58;94.24
61786;BME280;47692;53.714;11.372;2023-03-14T08:33:51;98123.91;;;9.71;92.93
61786;BME280;47692;53.714;11.372;2023-03-14T08:36:19;98121.09;;;9.89;92.40
61786;BME280;47692;53.714;11.372;2023-03-14T08:38:44;98124.53;;;10.03;91.57
61786;BME280;47692;53.714;11.372;2023-03-14T08:41:09;98134.97;;;10.03;90.15
61786;BME280;47692;53.714;11.372;2023-03-14T08:43:35;98123.22;;;9.82;89.71
61786;BME280;47692;53.714;11.372;2023-03-14T08:46:01;98126.03;;;9.79;89.70
61786;BME280;47692;53.714;11.372;2023-03-14T08:48:28;98128.81;;;9.90;90.45
61786;BME280;47692;53.714;11.372;2023-03-14T08:51:01;98133.06;;;10.06;90.77
61786;BME280;47692;53.714;11.372;2023-03-14T08:53:28;98128.72;;;10.06;90.70
61786;BME280;47692;53.714;11.372;2023-03-14T08:55:54;98131.03;;;10.11;90.93
61786;BME280;47692;53.714;11.372;2023-03-14T08:58:19;98127.09;;;10.18;90.33
61786;BME280;47692;53.714;11.372;2023-03-14T09:00:44;98126.91;;;10.21;91.02
61786;BME280;47692;53.714;11.372;2023-03-14T09:03:10;98133.81;;;10.37;90.93
61786;BME280;47692;53.714;11.372;2023-03-14T09:05:35;98122.25;;;10.41;89.99
61786;BME280;47692;53.714;11.372;2023-03-14T09:08:00;98122.63;;;10.34;89.60
61786;BME280;47692;53.714;11.372;2023-03-14T09:10:26;98122.63;;;10.34;90.05
61786;BME280;47692;53.714;11.372;2023-03-14T09:12:51;98132.41;;;10.31;89.89
61786;BME280;47692;53.714;11.372;2023-03-14T09:15:16;98119.59;;;10.13;89.78
61786;BME280;47692;53.714;11.372;2023-03-14T09:17:43;98123.22;;;10.11;90.62
61786;BME280;47692;53.714;11.372;2023-03-14T09:20:09;98119.75;;;10.10;90.17
61786;BME280;47692;53.714;11.372;2023-03-14T09:22:34;98117.97;;;10.25;90.22
61786;BME280;47692;53.714;11.372;2023-03-14T09:25:01;98124.41;;;10.19;90.38
61786;BME280;47692;53.714;11.372;2023-03-14T09:27:26;98114.81;;;10.20;88.92
61786;BME280;47692;53.714;11.372;2023-03-14T09:29:52;98118.56;;;10.01;88.84
61786;BME280;47692;53.714;11.372;2023-03-14T09:32:17;98134.03;;;10.05;89.54
61786;BME280;47692;53.714;11.372;2023-03-14T09:34:43;98127.03;;;10.05;90.56
61786;BME280;47692;53.714;11.372;2023-03-14T09:37:08;98133.06;;;10.06;90.32
61786;BME280;47692;53.714;11.372;2023-03-14T09:39:33;98129.53;;;10.07;91.02
61786;BME280;47692;53.714;11.372;2023-03-14T09:42:02;98123.13;;;10.12;91.16
61786;BME280;47692;53.714;11.372;2023-03-14T09:44:35;98121.72;;;10.21;89.84
61786;BME280;47692;53.714;11.372;2023-03-14T09:47:09;98126.53;;;10.27;88.86
61786;BME280;47692;53.714;11.372;2023-03-14T09:49:39;98123.72;;;10.30;87.78
61786;BME280;47692;53.714;11.372;2023-03-14T09:52:12;98125.22;;;10.34;87.61
61786;BME280;47692;53.714;11.372;2023-03-14T09:57:13;98134.66;;;10.37;87.83
61786;BME280;47692;53.714;11.372;2023-03-14T09:59:39;98132.84;;;10.52;86.12
61786;BME280;47692;53.714;11.372;2023-03-14T10:02:14;98137.84;;;10.55;85.45
61786;BME280;47692;53.714;11.372;2023-03-14T10:04:41;98128.69;;;10.62;84.73
61786;BME280;47692;53.714;11.372;2023-03-14T10:07:15;98133.03;;;10.76;84.64
61786;BME280;47692;53.714;11.372;2023-03-14T10:09:43;98122.63;;;10.89;84.34
61786;BME280;47692;53.714;11.372;2023-03-14T10:12:09;98125.56;;;10.97;83.63
61786;BME280;47692;53.714;11.372;2023-03-14T10:14:37;98123.53;;;11.15;83.27
61786;BME280;47692;53.714;11.372;2023-03-14T10:17:13;98133.34;;;11.12;82.03
61786;BME280;47692;53.714;11.372;2023-03-14T10:19:54;98131.66;;;11.11;80.92
61786;BME280;47692;53.714;11.372;2023-03-14T10:22:21;98135.19;;;11.10;81.11
61786;BME280;47692;53.714;11.372;2023-03-14T10:24:53;98128.28;;;11.09;80.65
61786;BME280;47692;53.714;11.372;2023-03-14T10:27:28;98126.44;;;11.11;80.18
61786;BME280;47692;53.714;11.372;2023-03-14T10:29:56;98135.31;;;11.08;80.21
61786;BME280;47692;53.714;11.372;2023-03-14T10:32:28;98136.25;;;11.07;80.64
61786;BME280;47692;53.714;11.372;2023-03-14T10:37:50;98133.22;;;11.13;79.71
61786;BME280;47692;53.714;11.372;2023-03-14T10:40:18;98133.84;;;11.17;79.86
61786;BME280;47692;53.714;11.372;2023-03-14T10:42:43;98128.22;;;11.23;80.45
61786;BME280;47692;53.714;11.372;2023-03-14T10:45:28;98119.34;;;11.26;79.74
61786;BME280;47692;53.714;11.372;2023-03-14T10:47:59;98123.53;;;11.28;78.81
61786;BME280;47692;53.714;11.372;2023-03-14T10:50:27;98134.91;;;11.27;79.03
61786;BME280;47692;53.714;11.372;2023-03-14T10:52:54;98119.25;;;11.27;78.35
61786;BME280;47692;53.714;11.372;2023-03-14T10:55:19;98123.22;;;11.33;78.16
61786;BME280;47692;53.714;11.372;2023-03-14T10:57:45;98117.59;;;11.39;77.78
61786;BME280;47692;53.714;11.372;2023-03-14T11:00:19;98123.97;;;11.48;77.23
61786;BME280;47692;53.714;11.372;2023-03-14T11:05:45;98130.84;;;11.62;75.79
61786;BME280;47692;53.714;11.372;2023-03-14T11:08:42;98131.28;;;11.56;76.29
61786;BME280;47692;53.714;11.372;2023-03-14T11:11:18;98129.94;;;11.50;75.87
61786;BME280;47692;53.714;11.372;2023-03-14T11:17:02;98175.75;;;11.28;76.74
61786;BME280;47692;53.714;11.372;2023-03-14T11:20:04;98256.72;;;10.74;80.45
61786;BME280;47692;53.714;11.372;2023-03-14T11:22:50;98282.03;;;8.09;87.51
61786;BME280;47692;53.714;11.372;2023-03-14T11:30:54;98344.16;;;4.51;100.00
61786;BME280;47692;53.714;11.372;2023-03-14T11:33:24;98345.91;;;4.26;100.00
61786;BME280;47692;53.714;11.372;2023-03-14T11:38:50;98374.38;;;3.72;100.00
61786;BME280;47692;53.714;11.372;2023-03-14T11:41:39;98393.78;;;3.57;100.00
61786;BME280;47692;53.714;11.372;2023-03-14T11:44:19;98403.34;;;3.53;100.00
61786;BME280;47692;53.714;11.372;2023-03-14T11:46:57;98412.97;;;3.48;100.00
61786;BME280;47692;53.714;11.372;2023-03-14T11:49:32;98423.19;;;3.51;100.00
61786;BME280;47692;53.714;11.372;2023-03-14T11:52:09;98434.56;;;3.44;100.00
61786;BME280;47692;53.714;11.372;2023-03-14T11:57:16;98453.81;;;3.34;100.00
61786;BME280;47692;53.714;11.372;2023-03-14T12:02:39;98481.69;;;3.21;100.00
61786;BME280;47692;53.714;11.372;2023-03-14T12:10:26;98502.72;;;2.74;100.00
61786;BME280;47692;53.714;11.372;2023-03-14T12:12:52;98518.47;;;2.63;100.00
61786;BME280;47692;53.714;11.372;2023-03-14T12:15:19;98525.41;;;2.61;100.00
61786;BME280;47692;53.714;11.372;2023-03-14T12:17:46;98530.81;;;2.50;100.00
61786;BME280;47692;53.714;11.372;2023-03-14T12:25:19;98544.03;;;2.36;100.00
61786;BME280;47692;53.714;11.372;2023-03-14T12:30:27;98561.19;;;2.36;100.00
61786;BME280;47692;53.714;11.372;2023-03-14T12:35:52;98574.03;;;2.37;100.00
61786;BME280;47692;53.714;11.372;2023-03-14T12:38:40;98586.97;;;2.36;100.00
61786;BME280;47692;53.714;11.372;2023-03-14T12:41:21;98593.72;;;2.40;100.00
61786;BME280;47692;53.714;11.372;2023-03-14T12:43:48;98601.63;;;2.34;100.00
61786;BME280;47692;53.714;11.372;2023-03-14T12:46:21;98600.72;;;2.35;100.00
61786;BME280;47692;53.714;11.372;2023-03-14T12:49:09;98611.13;;;2.30;100.00
61786;BME280;47692;53.714;11.372;2023-03-14T12:51:41;98611.16;;;2.29;100.00
61786;BME280;47692;53.714;11.372;2023-03-14T12:59:34;98622.97;;;2.37;100.00
61786;BME280;47692;53.714;11.372;2023-03-14T13:04:34;98639.94;;;2.46;100.00
61786;BME280;47692;53.714;11.372;2023-03-14T13:07:01;98629.53;;;2.51;100.00
61786;BME280;47692;53.714;11.372;2023-03-14T13:12:00;98645.84;;;2.51;100.00
61786;BME280;47692;53.714;11.372;2023-03-14T13:14:28;98649.97;;;2.58;100.00
61786;BME280;47692;53.714;11.372;2023-03-14T13:16:54;98659.28;;;2.64;100.00
61786;BME280;47692;53.714;11.372;2023-03-14T13:19:23;98672.06;;;2.69;100.00
61786;BME280;47692;53.714;11.372;2023-03-14T13:21:50;98683.31;;;2.66;100.00
61786;BME280;47692;53.714;11.372;2023-03-14T13:24:23;98690.22;;;2.64;100.00
61786;BME280;47692;53.714;11.372;2023-03-14T13:26:49;98692.78;;;2.64;100.00
61786;BME280;47692;53.714;11.372;2023-03-14T13:29:23;98703.00;;;2.69;100.00
61786;BME280;47692;53.714;11.372;2023-03-14T13:31:54;98708.00;;;2.75;100.00
61786;BME280;47692;53.714;11.372;2023-03-14T13:34:32;98710.59;;;2.75;100.00
61786;BME280;47692;53.714;11.372;2023-03-14T13:36:57;98721.69;;;2.77;100.00
61786;BME280;47692;53.714;11.372;2023-03-14T13:39:24;98734.41;;;2.85;100.00
61786;BME280;47692;53.714;11.372;2023-03-14T13:41:51;98734.47;;;2.82;100.00
61786;BME280;47692;53.714;11.372;2023-03-14T13:44:24;98745.56;;;2.85;100.00
61786;BME280;47692;53.714;11.372;2023-03-14T13:46:50;98754.91;;;2.89;100.00
61786;BME280;47692;53.714;11.372;2023-03-14T13:49:22;98757.56;;;2.86;100.00
61786;BME280;47692;53.714;11.372;2023-03-14T13:51:48;98759.19;;;2.90;100.00
61786;BME280;47692;53.714;11.372;2023-03-14T13:54:17;98760.75;;;2.98;100.00